Time;durP1;ratioP1;P1;durP2;ratioP2;P2;SDS_P1;SDS_P2;PMS_P1;PMS_P2;Temp;Humidity;BMP_temperature;BMP_pressure;BME280_temperature;BME280_humidity;BME280_pressure;Samples;Min_cycle;Max_cycle;Signal;HPM_P1;HPM_P2
2023/04/26 00:01:13;;;;;;;11.93;3.53;;;2.20;99.90;;;;;;5041999;28;20044;-67
2023/04/26 00:03:39;;;;;;;10.45;3.20;;;2.20;99.90;;;;;;5041791;28;20202;-67
2023/04/26 00:06:08;;;;;;;8.43;3.13;;;2.20;99.90;;;;;;5042032;28;20045;-66
2023/04/26 00:08:37;;;;;;;11.38;3.15;;;2.30;99.90;;;;;;5042784;28;20044;-67
2023/04/26 00:11:02;;;;;;;10.88;3.63;;;2.30;99.90;;;;;;5040757;28;20073;-67
2023/04/26 00:13:28;;;;;;;10.77;3.10;;;2.30;99.90;;;;;;5043358;28;20436;-67
2023/04/26 00:15:53;;;;;;;11.57;3.72;;;2.40;99.90;;;;;;5042812;28;20041;-67
2023/04/26 00:18:19;;;;;;;10.32;3.10;;;2.50;99.90;;;;;;5043975;28;20045;-67
2023/04/26 00:20:45;;;;;;;10.50;3.85;;;2.50;99.90;;;;;;5040777;28;20045;-66
2023/04/26 00:23:10;;;;;;;12.63;2.97;;;2.60;99.90;;;;;;5043975;28;20037;-67
2023/04/26 00:25:37;;;;;;;11.00;3.00;;;2.60;99.90;;;;;;5042790;28;20037;-67
2023/04/26 00:28:02;;;;;;;8.20;2.92;;;2.70;99.90;;;;;;5041417;28;20484;-66
2023/04/26 00:30:29;;;;;;;6.70;2.78;;;2.80;99.90;;;;;;5041422;28;20052;-66
2023/04/26 00:32:54;;;;;;;8.57;3.00;;;2.80;99.90;;;;;;5042087;28;20059;-67
2023/04/26 00:35:20;;;;;;;9.60;3.08;;;2.90;99.90;;;;;;5042521;28;20033;-66
2023/04/26 00:37:46;;;;;;;8.77;3.00;;;3.00;99.90;;;;;;5044468;28;20029;-67
2023/04/26 00:40:12;;;;;;;10.63;3.20;;;3.00;99.90;;;;;;5045038;28;20488;-67
2023/04/26 00:42:39;;;;;;;9.05;3.13;;;3.00;99.90;;;;;;5043694;28;20045;-66
2023/04/26 00:45:06;;;;;;;11.75;3.60;;;3.00;99.90;;;;;;5043421;28;20074;-68
2023/04/26 00:47:32;;;;;;;12.07;3.40;;;3.10;99.90;;;;;;5042732;28;20040;-67
2023/04/26 00:49:59;;;;;;;8.18;3.10;;;3.10;99.90;;;;;;5041623;28;20527;-67
2023/04/26 00:52:26;;;;;;;13.63;3.53;;;3.10;99.90;;;;;;5042293;28;21318;-67
2023/04/26 00:54:53;;;;;;;9.80;3.30;;;3.10;99.90;;;;;;5042725;28;20050;-67
2023/04/26 00:57:19;;;;;;;11.13;3.65;;;3.10;99.90;;;;;;5042223;28;20450;-67
2023/04/26 00:59:44;;;;;;;9.95;3.13;;;3.10;99.90;;;;;;5042829;28;20041;-68
2023/04/26 01:02:10;;;;;;;10.13;3.53;;;3.10;99.90;;;;;;5042414;28;20064;-67
2023/04/26 01:04:36;;;;;;;7.82;2.92;;;3.00;99.90;;;;;;5042464;28;20040;-67
2023/04/26 01:07:02;;;;;;;8.60;2.97;;;3.00;99.90;;;;;;5041160;28;20226;-67
2023/04/26 01:09:31;;;;;;;11.73;3.20;;;2.90;99.90;;;;;;5041616;28;20377;-67
2023/04/26 01:11:57;;;;;;;13.98;3.50;;;2.90;99.90;;;;;;5042060;28;20029;-67
2023/04/26 01:14:23;;;;;;;8.30;2.65;;;2.90;99.90;;;;;;5041373;28;20069;-67
2023/04/26 01:16:51;;;;;;;8.52;3.10;;;2.80;99.90;;;;;;5040294;28;20067;-67
2023/04/26 01:19:17;;;;;;;9.68;2.88;;;2.80;99.90;;;;;;5040313;28;20116;-67
2023/04/26 01:21:42;;;;;;;8.00;2.80;;;2.80;99.90;;;;;;5037769;28;20539;-67
2023/04/26 01:24:12;;;;;;;5.00;2.20;;;2.80;99.90;;;;;;5043434;28;20029;-66
2023/04/26 01:26:44;;;;;;;9.43;2.80;;;2.80;99.90;;;;;;5039915;28;20696;-67
2023/04/26 01:29:20;;;;;;;9.23;2.57;;;2.80;99.90;;;;;;5041117;28;20048;-67
2023/04/26 01:31:47;;;;;;;6.85;3.10;;;2.70;99.90;;;;;;5040755;28;20052;-68
2023/04/26 01:34:13;;;;;;;8.60;3.10;;;2.70;99.90;;;;;;5041456;28;20122;-68
2023/04/26 01:36:39;;;;;;;6.35;2.90;;;2.50;99.90;;;;;;5040227;28;20065;-67
2023/04/26 01:39:05;;;;;;;9.73;2.83;;;2.40;99.90;;;;;;5042394;28;20099;-68
2023/04/26 01:41:32;;;;;;;8.90;2.45;;;2.30;99.90;;;;;;5044810;28;20041;-68
2023/04/26 01:43:58;;;;;;;10.80;2.92;;;2.30;99.90;;;;;;5041932;28;20037;-67
2023/04/26 01:46:23;;;;;;;6.18;2.97;;;2.30;99.90;;;;;;5043262;28;20395;-67
2023/04/26 01:48:49;;;;;;;6.15;2.70;;;2.20;99.90;;;;;;5042966;28;20044;-67
2023/04/26 01:51:15;;;;;;;12.38;3.08;;;2.30;99.90;;;;;;5043689;28;20122;-67
2023/04/26 01:53:41;;;;;;;7.63;3.00;;;2.30;99.90;;;;;;5043034;28;20048;-68
2023/04/26 01:56:06;;;;;;;10.85;2.92;;;2.30;99.90;;;;;;5044113;28;20447;-67
2023/04/26 01:58:32;;;;;;;9.52;2.78;;;2.30;99.90;;;;;;5045008;28;20040;-67
2023/04/26 02:01:05;;;;;;;7.30;2.80;;;2.30;99.90;;;;;;5060630;28;20052;-67
2023/04/26 02:03:30;;;;;;;9.00;2.80;;;2.30;99.90;;;;;;5041518;28;20094;-67
2023/04/26 02:05:56;;;;;;;10.95;2.90;;;2.30;99.90;;;;;;5042795;28;20045;-67
2023/04/26 02:08:22;;;;;;;9.30;3.20;;;2.30;99.90;;;;;;5044416;28;20044;-67
2023/04/26 02:10:47;;;;;;;7.70;3.30;;;2.30;99.90;;;;;;5041379;28;20450;-67
2023/04/26 02:13:14;;;;;;;9.10;2.95;;;2.30;99.90;;;;;;5043632;28;20049;-66
2023/04/26 02:15:39;;;;;;;7.82;2.90;;;2.30;99.90;;;;;;5040377;28;20028;-66
2023/04/26 02:18:05;;;;;;;8.93;2.95;;;2.30;99.90;;;;;;5043011;28;20048;-66
2023/04/26 02:20:31;;;;;;;9.25;3.50;;;2.30;99.90;;;;;;5038668;28;20033;-66
2023/04/26 02:22:57;;;;;;;6.70;2.97;;;2.30;99.90;;;;;;5040908;28;20408;-66
2023/04/26 02:25:23;;;;;;;15.35;3.28;;;2.30;99.90;;;;;;5039321;28;20135;-66
2023/04/26 02:27:49;;;;;;;7.90;2.72;;;2.30;99.90;;;;;;5040556;28;20037;-66
2023/04/26 02:30:14;;;;;;;7.80;3.05;;;2.30;99.90;;;;;;5039178;28;20451;-66
2023/04/26 02:32:40;;;;;;;10.50;3.63;;;2.40;99.90;;;;;;5040543;28;20037;-66
2023/04/26 02:35:06;;;;;;;9.73;3.08;;;2.40;99.90;;;;;;5038663;28;20124;-67
2023/04/26 02:37:33;;;;;;;12.93;3.05;;;2.40;99.90;;;;;;5040108;28;20045;-66
2023/04/26 02:39:58;;;;;;;8.40;2.72;;;2.40;99.90;;;;;;5040357;28;20041;-66
2023/04/26 02:42:24;;;;;;;6.45;2.88;;;2.40;99.90;;;;;;5035108;28;20048;-66
2023/04/26 02:44:49;;;;;;;7.63;2.65;;;2.50;99.90;;;;;;5040158;28;20094;-66
2023/04/26 02:47:15;;;;;;;9.27;2.95;;;2.50;99.90;;;;;;5042325;28;20526;-66
2023/04/26 02:49:41;;;;;;;7.43;2.60;;;2.50;99.90;;;;;;5041912;28;20037;-66
2023/04/26 02:52:06;;;;;;;9.32;2.88;;;2.60;99.90;;;;;;5041614;28;20384;-67
2023/04/26 02:54:32;;;;;;;10.75;2.80;;;2.50;99.90;;;;;;5042970;28;20041;-66
2023/04/26 02:56:57;;;;;;;7.95;2.85;;;2.50;99.90;;;;;;5043820;28;20048;-66
2023/04/26 02:59:23;;;;;;;7.38;2.90;;;2.60;99.90;;;;;;5042409;28;20033;-67
2023/04/26 03:01:48;;;;;;;6.60;2.67;;;2.60;99.90;;;;;;5043902;28;20037;-67
2023/04/26 03:04:16;;;;;;;10.00;2.92;;;2.60;99.90;;;;;;5043910;28;20045;-67
2023/04/26 03:06:41;;;;;;;8.90;3.35;;;2.60;99.90;;;;;;5041817;28;20072;-67
2023/04/26 03:09:07;;;;;;;8.77;3.30;;;2.60;99.90;;;;;;5044111;28;20130;-68
2023/04/26 03:11:32;;;;;;;8.55;2.95;;;2.70;99.90;;;;;;5046376;28;20550;-67
2023/04/26 03:13:58;;;;;;;10.40;3.10;;;2.70;99.90;;;;;;5045430;28;20099;-68
2023/04/26 03:16:26;;;;;;;8.13;2.70;;;2.70;99.90;;;;;;5044451;28;20068;-67
2023/04/26 03:18:52;;;;;;;9.13;3.08;;;2.80;99.90;;;;;;5029379;28;20040;-67
2023/04/26 03:21:18;;;;;;;10.25;3.30;;;2.80;99.90;;;;;;5028117;28;20397;-67
2023/04/26 03:23:44;;;;;;;13.63;3.58;;;2.90;99.90;;;;;;5043156;28;20040;-67
2023/04/26 03:26:10;;;;;;;10.90;3.70;;;3.00;99.90;;;;;;5043203;28;20479;-67
2023/04/26 03:28:35;;;;;;;8.43;3.45;;;2.90;99.90;;;;;;5042612;28;20045;-67
2023/04/26 03:31:01;;;;;;;11.13;3.90;;;3.00;99.90;;;;;;5041450;28;20047;-68
2023/04/26 03:33:27;;;;;;;10.43;3.60;;;2.90;99.90;;;;;;5043647;28;20128;-67
2023/04/26 03:35:52;;;;;;;9.65;3.70;;;2.90;99.90;;;;;;5044580;28;20068;-67
2023/04/26 03:38:18;;;;;;;13.30;5.18;;;2.80;99.90;;;;;;5044118;28;20083;-67
2023/04/26 03:40:43;;;;;;;9.95;3.45;;;2.80;99.90;;;;;;5042746;28;20068;-66
2023/04/26 03:43:09;;;;;;;9.10;2.97;;;2.80;99.90;;;;;;5044656;28;20048;-67
2023/04/26 03:45:35;;;;;;;11.15;3.40;;;2.70;99.90;;;;;;5041683;28;20511;-67
2023/04/26 03:48:01;;;;;;;7.53;3.30;;;2.80;99.90;;;;;;5040627;28;20466;-67
2023/04/26 03:50:27;;;;;;;12.48;3.10;;;2.80;99.90;;;;;;5042518;28;20053;-67
2023/04/26 03:52:53;;;;;;;10.13;3.20;;;2.80;99.90;;;;;;5040909;28;20183;-66
2023/04/26 03:55:19;;;;;;;6.80;3.08;;;2.90;99.90;;;;;;5041629;28;20055;-66
2023/04/26 03:57:44;;;;;;;6.63;3.33;;;2.90;99.90;;;;;;5041024;28;20438;-66
2023/04/26 04:00:12;;;;;;;11.75;3.10;;;3.00;99.90;;;;;;5041381;28;20106;-66
2023/04/26 04:02:38;;;;;;;7.07;3.17;;;2.90;99.90;;;;;;5038813;28;20053;-67
2023/04/26 04:05:04;;;;;;;7.60;3.08;;;2.90;99.90;;;;;;5041598;28;20377;-66
2023/04/26 04:07:31;;;;;;;11.32;3.10;;;2.90;99.90;;;;;;5041681;28;20056;-66
2023/04/26 04:09:57;;;;;;;6.85;3.13;;;2.80;99.90;;;;;;5043431;28;20498;-67
2023/04/26 04:12:23;;;;;;;9.07;3.00;;;2.80;99.90;;;;;;5043971;28;20071;-67
2023/04/26 04:14:48;;;;;;;10.15;3.45;;;2.80;99.90;;;;;;5039711;28;20072;-67
2023/04/26 04:17:14;;;;;;;8.40;2.88;;;2.70;99.90;;;;;;5048330;28;20159;-67
2023/04/26 04:19:39;;;;;;;10.77;3.17;;;2.70;99.90;;;;;;5047439;28;20051;-67
2023/04/26 04:22:05;;;;;;;9.25;3.15;;;2.70;99.90;;;;;;5041902;28;20055;-66
2023/04/26 04:24:31;;;;;;;7.03;3.42;;;2.70;99.90;;;;;;5042915;28;20049;-67
2023/04/26 04:26:57;;;;;;;7.72;3.03;;;2.60;99.90;;;;;;5041570;28;20043;-67
2023/04/26 04:29:22;;;;;;;7.35;2.90;;;2.60;99.90;;;;;;5040684;28;20045;-67
2023/04/26 04:31:48;;;;;;;7.55;3.15;;;2.60;99.90;;;;;;5046294;28;20040;-67
2023/04/26 04:34:15;;;;;;;8.52;3.38;;;2.70;99.90;;;;;;5041126;28;20453;-67
2023/04/26 04:36:40;;;;;;;9.27;2.88;;;2.70;99.90;;;;;;5042290;28;20064;-68
2023/04/26 04:39:11;;;;;;;8.32;3.10;;;2.60;99.90;;;;;;5042051;28;20492;-67
2023/04/26 04:41:36;;;;;;;8.68;3.10;;;2.60;99.90;;;;;;5045767;28;20331;-67
2023/04/26 04:44:02;;;;;;;8.23;3.50;;;2.60;99.90;;;;;;5045655;28;20411;-67
2023/04/26 04:46:28;;;;;;;9.23;3.22;;;2.60;99.90;;;;;;5046611;28;20048;-67
2023/04/26 04:48:54;;;;;;;10.38;3.45;;;2.70;99.90;;;;;;5045570;28;20036;-67
2023/04/26 04:51:20;;;;;;;7.45;3.00;;;2.70;99.90;;;;;;5045515;28;20349;-66
2023/04/26 04:53:45;;;;;;;6.60;3.00;;;2.70;99.90;;;;;;5043858;28;20048;-65
2023/04/26 04:56:11;;;;;;;6.00;2.47;;;2.80;99.90;;;;;;5043058;28;20066;-66
2023/04/26 04:58:36;;;;;;;6.40;2.70;;;2.80;99.90;;;;;;5044863;28;20399;-66
2023/04/26 05:01:02;;;;;;;5.68;2.90;;;2.80;99.90;;;;;;5044054;28;20377;-66
2023/04/26 05:03:28;;;;;;;7.38;3.38;;;2.80;99.90;;;;;;5046450;28;20051;-66
2023/04/26 05:05:53;;;;;;;7.70;3.50;;;2.80;99.90;;;;;;5042809;28;20041;-66
2023/04/26 05:08:19;;;;;;;10.27;3.25;;;2.80;99.90;;;;;;5043979;28;20127;-66
2023/04/26 05:10:44;;;;;;;7.18;3.05;;;2.80;99.90;;;;;;5044165;28;20045;-67
2023/04/26 05:13:10;;;;;;;12.75;3.45;;;2.80;99.90;;;;;;5047344;28;20459;-67
2023/04/26 05:15:36;;;;;;;6.78;3.22;;;2.90;99.90;;;;;;5041282;28;20538;-66
2023/04/26 05:18:01;;;;;;;7.20;3.42;;;3.00;99.90;;;;;;5041218;28;20095;-66
2023/04/26 05:20:28;;;;;;;9.32;3.28;;;3.10;99.90;;;;;;5040513;28;20189;-67
2023/04/26 05:22:53;;;;;;;7.45;3.22;;;3.10;99.90;;;;;;5040128;28;20363;-67
2023/04/26 05:25:19;;;;;;;6.13;2.97;;;3.30;99.90;;;;;;5025264;28;20039;-67
2023/04/26 05:27:44;;;;;;;8.13;3.22;;;3.30;99.90;;;;;;5040264;28;20091;-67
2023/04/26 05:30:11;;;;;;;9.48;3.47;;;3.40;99.90;;;;;;5042168;28;20408;-66
2023/04/26 05:32:36;;;;;;;7.78;3.20;;;3.40;99.90;;;;;;5039234;28;20217;-67
2023/04/26 05:35:02;;;;;;;10.77;3.92;;;3.50;99.90;;;;;;5026824;28;20441;-66
2023/04/26 05:37:28;;;;;;;8.95;3.65;;;3.60;99.90;;;;;;5039756;28;20045;-67
2023/04/26 05:39:53;;;;;;;6.85;3.70;;;3.70;99.90;;;;;;5040113;28;20040;-67
2023/04/26 05:42:19;;;;;;;9.80;4.05;;;3.80;99.90;;;;;;5041116;28;20032;-66
2023/04/26 05:44:44;;;;;;;12.88;4.63;;;4.00;99.90;;;;;;5039148;28;20049;-67
2023/04/26 05:47:10;;;;;;;8.98;4.20;;;4.10;99.90;;;;;;5041313;28;20504;-68
2023/04/26 05:49:35;;;;;;;11.02;3.88;;;4.10;99.90;;;;;;5040371;28;20045;-68
2023/04/26 05:52:02;;;;;;;10.70;3.78;;;4.30;99.90;;;;;;5041469;28;20044;-68
2023/04/26 05:54:28;;;;;;;9.52;4.20;;;4.40;99.90;;;;;;5041766;28;20049;-68
2023/04/26 05:56:53;;;;;;;6.85;3.22;;;4.40;99.90;;;;;;5042620;28;20434;-68
2023/04/26 05:59:19;;;;;;;8.00;3.88;;;4.40;99.90;;;;;;5042945;28;20029;-68
2023/04/26 06:01:45;;;;;;;11.05;3.58;;;4.50;99.90;;;;;;5043984;28;20369;-69
2023/04/26 06:04:11;;;;;;;10.13;3.78;;;4.60;99.90;;;;;;5042881;28;20056;-70
2023/04/26 06:06:40;;;;;;;7.65;3.45;;;4.60;99.90;;;;;;5046494;28;20111;-68
2023/04/26 06:09:05;;;;;;;10.18;3.67;;;4.70;99.90;;;;;;5043056;28;20051;-69
2023/04/26 06:11:31;;;;;;;6.85;3.15;;;4.70;99.90;;;;;;5044427;28;20041;-68
2023/04/26 06:13:56;;;;;;;9.45;3.33;;;4.80;99.90;;;;;;5041885;28;20045;-68
2023/04/26 06:16:22;;;;;;;9.43;3.60;;;4.90;99.90;;;;;;5042322;28;20396;-68
2023/04/26 06:18:47;;;;;;;5.72;2.83;;;5.00;99.90;;;;;;5042445;28;20041;-68
2023/04/26 06:21:13;;;;;;;8.18;2.85;;;5.10;99.90;;;;;;5047491;28;20033;-67
2023/04/26 06:23:38;;;;;;;6.80;2.80;;;5.30;99.90;;;;;;5048326;28;20048;-69
2023/04/26 06:26:04;;;;;;;12.48;3.30;;;5.40;99.90;;;;;;5050514;28;20034;-67
2023/04/26 06:28:29;;;;;;;8.02;3.30;;;5.60;99.90;;;;;;5052525;28;20070;-67
2023/04/26 06:30:55;;;;;;;7.45;3.15;;;5.80;99.90;;;;;;5048570;28;20048;-69
2023/04/26 06:33:20;;;;;;;7.28;2.88;;;6.00;99.90;;;;;;5047124;28;20045;-68
2023/04/26 06:35:46;;;;;;;9.32;3.20;;;6.10;99.90;;;;;;5048427;28;20037;-67
2023/04/26 06:38:11;;;;;;;5.65;2.83;;;6.10;99.90;;;;;;5047386;28;20037;-69
2023/04/26 06:40:37;;;;;;;11.40;2.92;;;6.20;99.90;;;;;;5049302;28;20067;-67
2023/04/26 06:43:03;;;;;;;7.80;2.65;;;6.30;99.90;;;;;;5049618;28;20040;-68
2023/04/26 06:45:29;;;;;;;7.10;2.40;;;6.50;99.90;;;;;;5052092;28;20041;-68
2023/04/26 06:47:56;;;;;;;8.02;2.65;;;6.50;99.90;;;;;;5052972;28;20484;-66
2023/04/26 06:50:21;;;;;;;6.43;2.30;;;6.60;99.90;;;;;;5050864;28;20438;-66
2023/04/26 06:52:47;;;;;;;4.35;1.70;;;6.60;99.90;;;;;;5050193;28;20048;-67
2023/04/26 06:55:12;;;;;;;7.22;2.90;;;6.60;99.90;;;;;;5052620;28;20029;-67
2023/04/26 06:57:38;;;;;;;8.55;1.98;;;6.60;99.90;;;;;;5039485;28;20041;-66
2023/04/26 07:00:04;;;;;;;5.72;2.42;;;6.50;99.90;;;;;;5032583;28;20420;-68
2023/04/26 07:02:30;;;;;;;7.03;2.90;;;6.60;99.90;;;;;;5036662;28;20052;-68
2023/04/26 07:04:56;;;;;;;10.05;2.95;;;6.60;99.90;;;;;;5052173;28;20495;-66
2023/04/26 07:07:22;;;;;;;7.53;3.22;;;6.70;99.90;;;;;;5050605;28;20048;-68
2023/04/26 07:09:47;;;;;;;8.07;3.00;;;6.70;99.90;;;;;;5034160;28;20048;-66
2023/04/26 07:12:13;;;;;;;9.35;3.08;;;6.70;99.90;;;;;;5053102;28;20044;-66
2023/04/26 07:14:39;;;;;;;8.40;3.22;;;6.70;99.90;;;;;;5051700;28;20063;-69
2023/04/26 07:17:06;;;;;;;9.27;3.53;;;6.70;99.90;;;;;;5051655;28;20048;-69
2023/04/26 07:19:31;;;;;;;8.70;3.38;;;6.80;99.90;;;;;;5043146;28;20044;-68
2023/04/26 07:21:57;;;;;;;9.50;3.10;;;6.90;99.90;;;;;;5049720;28;20380;-68
2023/04/26 07:24:22;;;;;;;9.18;3.33;;;7.10;99.90;;;;;;5049872;28;20037;-67
2023/04/26 07:26:48;;;;;;;7.85;3.47;;;7.20;99.90;;;;;;5050933;28;20052;-68
2023/04/26 07:29:14;;;;;;;6.85;2.70;;;7.20;99.90;;;;;;5049957;28;20045;-67
2023/04/26 07:31:40;;;;;;;8.63;3.30;;;7.20;99.90;;;;;;5050788;28;20051;-70
2023/04/26 07:34:06;;;;;;;8.32;3.20;;;7.20;99.90;;;;;;5051711;28;20264;-71
2023/04/26 07:36:31;;;;;;;12.77;4.00;;;7.20;99.90;;;;;;5052677;28;20521;-69
2023/04/26 07:38:57;;;;;;;7.88;3.83;;;7.10;99.90;;;;;;5048607;28;20151;-68
2023/04/26 07:41:23;;;;;;;11.77;4.72;;;7.30;99.90;;;;;;5051497;28;20029;-70
2023/04/26 07:43:48;;;;;;;10.63;3.75;;;7.30;99.90;;;;;;5051844;28;20399;-69
2023/04/26 07:46:14;;;;;;;9.25;4.10;;;7.40;99.90;;;;;;5050017;28;20467;-69
2023/04/26 07:48:39;;;;;;;15.45;5.15;;;7.40;99.90;;;;;;5050630;28;20056;-70
2023/04/26 07:51:07;;;;;;;15.77;5.70;;;7.40;99.90;;;;;;5050769;28;20045;-68
2023/04/26 07:53:32;;;;;;;12.48;4.03;;;7.50;99.90;;;;;;5049872;28;20091;-68
2023/04/26 07:55:58;;;;;;;11.98;4.50;;;7.60;99.90;;;;;;5047138;28;20392;-69
2023/04/26 07:58:23;;;;;;;17.15;5.45;;;7.60;99.90;;;;;;5048873;28;20038;-68
2023/04/26 08:00:49;;;;;;;9.27;3.67;;;7.60;99.90;;;;;;5052567;28;20441;-70
2023/04/26 08:03:17;;;;;;;9.18;3.75;;;7.50;99.90;;;;;;5052414;28;20566;-66
2023/04/26 08:05:42;;;;;;;9.00;3.05;;;7.40;99.90;;;;;;5051772;28;20119;-65
2023/04/26 08:08:08;;;;;;;7.32;2.83;;;7.30;99.90;;;;;;5047400;28;20432;-65
2023/04/26 08:10:36;;;;;;;11.07;3.13;;;7.40;99.90;;;;;;5028829;28;20045;-67
2023/04/26 08:13:02;;;;;;;10.05;2.95;;;7.50;99.90;;;;;;5033689;28;20411;-66
2023/04/26 08:15:28;;;;;;;6.72;2.53;;;7.70;99.90;;;;;;5047336;28;20048;-65
2023/04/26 08:17:54;;;;;;;6.47;3.15;;;7.70;99.90;;;;;;5051024;28;20044;-65
2023/04/26 08:20:22;;;;;;;9.13;3.03;;;8.00;99.90;;;;;;5050107;28;20040;-66
2023/04/26 08:22:47;;;;;;;5.50;2.67;;;7.90;99.90;;;;;;5052201;28;20043;-65
2023/04/26 08:25:59;;;;;;;6.72;2.92;;;7.90;99.90;;;;;;5035314;28;20037;-65
2023/04/26 08:28:24;;;;;;;7.00;3.13;;;7.90;99.90;;;;;;5036646;28;20041;-66
2023/04/26 08:30:52;;;;;;;8.27;3.22;;;7.90;99.90;;;;;;5041799;28;20052;-64
2023/04/26 08:33:18;;;;;;;7.85;3.15;;;7.90;99.90;;;;;;5032313;28;20041;-67
2023/04/26 08:35:43;;;;;;;7.03;2.60;;;8.00;99.90;;;;;;5032318;28;20530;-67
2023/04/26 08:38:15;;;;;;;5.90;3.00;;;8.10;99.90;;;;;;5046089;28;20381;-64
2023/04/26 08:40:44;;;;;;;8.18;2.92;;;8.00;99.90;;;;;;5052068;28;20048;-65
2023/04/26 08:43:10;;;;;;;9.35;2.90;;;8.00;99.90;;;;;;5048304;28;20048;-66
2023/04/26 08:45:43;;;;;;;5.68;2.53;;;8.10;99.90;;;;;;5049273;28;20037;-65
2023/04/26 08:48:14;;;;;;;5.88;2.72;;;8.40;99.90;;;;;;5052296;28;20029;-66
2023/04/26 08:50:43;;;;;;;4.40;2.22;;;8.50;99.90;;;;;;5050403;28;20032;-64
2023/04/26 08:53:13;;;;;;;4.90;2.08;;;8.60;99.90;;;;;;5050575;28;20360;-65
2023/04/26 08:55:40;;;;;;;6.32;2.83;;;8.70;99.90;;;;;;5051076;28;20068;-65
2023/04/26 08:58:06;;;;;;;7.00;2.75;;;8.50;99.90;;;;;;5049025;28;20039;-65
2023/04/26 09:00:32;;;;;;;5.15;2.40;;;8.30;99.90;;;;;;5047086;28;20045;-67
2023/04/26 09:02:57;;;;;;;5.63;2.42;;;8.10;99.90;;;;;;5049921;28;20082;-67
2023/04/26 09:05:25;;;;;;;6.40;2.55;;;8.00;99.90;;;;;;5047457;28;20036;-66
2023/04/26 09:07:55;;;;;;;8.23;2.28;;;7.90;99.90;;;;;;5038663;28;20041;-66
2023/04/26 09:10:23;;;;;;;6.15;2.35;;;7.90;99.90;;;;;;5035746;28;20037;-65
2023/04/26 09:12:52;;;;;;;7.25;1.95;;;7.80;99.90;;;;;;5047157;28;20107;-65
2023/04/26 09:15:20;;;;;;;9.43;2.10;;;7.90;99.90;;;;;;5034190;28;20036;-66
2023/04/26 09:17:48;;;;;;;6.35;2.47;;;7.90;99.90;;;;;;5037177;28;20069;-66
2023/04/26 09:20:22;;;;;;;6.65;1.95;;;7.90;99.90;;;;;;5048788;28;20403;-64
2023/04/26 09:22:49;;;;;;;8.15;2.33;;;8.10;99.90;;;;;;5050209;28;20502;-65
2023/04/26 09:25:18;;;;;;;4.75;2.05;;;8.30;99.90;;;;;;5043501;28;20048;-66
2023/04/26 09:27:45;;;;;;;8.45;2.58;;;8.50;99.90;;;;;;5050227;28;20372;-67
2023/04/26 09:30:12;;;;;;;7.43;2.22;;;8.80;99.90;;;;;;5049136;28;20179;-65
2023/04/26 09:33:03;;;;;;;8.77;2.50;;;9.10;99.90;;;;;;5050669;28;20033;-64
2023/04/26 09:35:33;;;;;;;3.58;1.63;;;9.50;99.90;;;;;;5050366;28;20522;-65
2023/04/26 09:37:58;;;;;;;4.93;2.00;;;9.60;99.90;;;;;;5050051;28;20476;-66
2023/04/26 09:40:25;;;;;;;4.68;2.25;;;9.80;99.90;;;;;;5047446;28;20081;-65
2023/04/26 09:43:06;;;;;;;7.15;2.22;;;10.00;99.90;;;;;;5048299;28;20048;-66
2023/04/26 09:45:42;;;;;;;5.60;2.20;;;10.00;99.90;;;;;;5049263;28;20109;-67
2023/04/26 09:48:25;;;;;;;5.28;2.00;;;10.10;99.90;;;;;;5033220;28;20056;-67
2023/04/26 09:50:53;;;;;;;3.47;1.80;;;10.20;99.90;;;;;;5049977;28;20033;-65
2023/04/26 09:53:27;;;;;;;6.15;2.08;;;10.20;99.90;;;;;;5050391;28;20041;-66
2023/04/26 09:55:54;;;;;;;3.58;1.80;;;10.10;99.90;;;;;;5050414;28;20041;-65
2023/04/26 09:58:21;;;;;;;4.85;2.05;;;10.20;99.90;;;;;;5050476;28;20045;-67
2023/04/26 10:00:51;;;;;;;4.57;2.15;;;10.10;99.90;;;;;;5049469;28;20466;-67
2023/04/26 10:03:19;;;;;;;7.72;2.17;;;10.00;99.90;;;;;;5037427;28;20069;-65
2023/04/26 10:05:45;;;;;;;8.25;2.60;;;10.00;99.90;;;;;;5029069;28;20132;-65
2023/04/26 10:08:11;;;;;;;4.63;2.40;;;10.00;99.90;;;;;;5046447;28;20087;-66
2023/04/26 10:10:37;;;;;;;4.38;2.05;;;10.00;99.90;;;;;;5049939;28;20503;-66
2023/04/26 10:13:05;;;;;;;8.02;2.20;;;10.20;99.90;;;;;;5050581;28;20059;-66
2023/04/26 10:15:30;;;;;;;7.63;2.30;;;10.20;99.90;;;;;;5050128;28;20083;-65
2023/04/26 10:17:56;;;;;;;6.93;2.50;;;10.30;99.90;;;;;;5033916;28;20041;-66
2023/04/26 10:20:25;;;;;;;5.35;2.30;;;10.60;99.90;;;;;;5047596;28;20028;-66
2023/04/26 10:22:59;;;;;;;5.45;1.98;;;10.70;99.90;;;;;;5048584;28;20124;-66
2023/04/26 10:25:35;;;;;;;5.53;1.92;;;10.40;99.90;;;;;;5045396;28;20494;-67
2023/04/26 10:28:06;;;;;;;7.35;1.90;;;9.80;99.90;;;;;;5046329;28;20403;-67
2023/04/26 10:30:31;;;;;;;5.20;1.70;;;9.30;99.90;;;;;;5049568;28;20090;-66
2023/04/26 10:32:57;;;;;;;3.30;1.50;;;9.00;99.90;;;;;;5050635;28;20559;-64
2023/04/26 10:35:28;;;;;;;8.05;1.88;;;8.90;99.90;;;;;;5048832;28;20068;-66
2023/04/26 10:37:59;;;;;;;4.72;1.75;;;8.90;99.90;;;;;;5049941;28;20037;-67
2023/04/26 10:40:39;;;;;;;4.63;1.80;;;9.00;99.90;;;;;;5048129;28;20048;-67
2023/04/26 10:43:26;;;;;;;6.35;2.17;;;9.00;99.90;;;;;;5032710;28;20087;-67
2023/04/26 10:45:53;;;;;;;9.60;1.88;;;9.10;99.90;;;;;;5050608;28;20522;-67
2023/04/26 10:48:29;;;;;;;8.00;2.00;;;9.10;99.90;;;;;;5048127;28;20055;-67
2023/04/26 10:51:00;;;;;;;5.18;2.40;;;9.00;99.90;;;;;;5039750;28;20041;-66
2023/04/26 10:53:30;;;;;;;5.93;2.33;;;9.00;99.90;;;;;;5049457;28;20056;-65
2023/04/26 10:55:56;;;;;;;5.40;2.60;;;8.90;99.90;;;;;;5048136;28;20098;-66
2023/04/26 10:58:31;;;;;;;5.55;2.30;;;8.90;99.90;;;;;;5049690;28;20037;-67
2023/04/26 11:01:07;;;;;;;6.25;2.20;;;8.90;99.90;;;;;;5047733;28;20045;-67
2023/04/26 11:03:32;;;;;;;9.40;2.50;;;9.00;99.90;;;;;;5047801;28;20515;-66
2023/04/26 11:05:58;;;;;;;5.03;2.67;;;9.00;99.90;;;;;;5030547;28;20075;-67
2023/04/26 11:08:25;;;;;;;8.23;2.42;;;9.10;99.90;;;;;;5052449;28;20534;-67
2023/04/26 11:11:09;;;;;;;7.50;2.45;;;9.10;99.90;;;;;;5044619;28;20049;-66
2023/04/26 11:13:40;;;;;;;6.80;2.13;;;9.20;99.90;;;;;;5047191;28;20083;-67
2023/04/26 11:16:08;;;;;;;4.70;2.22;;;9.30;99.90;;;;;;5050264;28;20037;-67
2023/04/26 11:18:36;;;;;;;4.30;2.22;;;9.40;99.90;;;;;;5048927;28;20040;-66
2023/04/26 11:21:02;;;;;;;5.85;2.55;;;9.60;99.90;;;;;;5042603;28;20186;-67
2023/04/26 11:23:28;;;;;;;5.88;2.40;;;9.60;99.90;;;;;;5048410;28;20408;-69
2023/04/26 11:26:02;;;;;;;5.03;2.33;;;9.70;99.90;;;;;;5048903;28;20096;-67
2023/04/26 11:28:31;;;;;;;4.38;2.17;;;10.10;99.90;;;;;;5049997;28;20080;-68
2023/04/26 11:30:57;;;;;;;5.13;2.22;;;10.50;99.90;;;;;;5048958;28;20091;-68
2023/04/26 11:33:23;;;;;;;4.93;2.10;;;10.80;99.90;;;;;;5049897;28;20041;-67
2023/04/26 11:35:54;;;;;;;4.47;1.90;;;10.70;99.90;;;;;;5043387;28;20047;-68
2023/04/26 11:38:27;;;;;;;7.30;2.15;;;10.40;99.90;;;;;;5051207;28;20048;-67
2023/04/26 11:40:55;;;;;;;3.13;1.77;;;10.30;99.90;;;;;;5050938;28;20052;-68
2023/04/26 11:43:22;;;;;;;5.80;1.92;;;10.10;99.90;;;;;;5048667;28;20041;-68
2023/04/26 11:45:47;;;;;;;4.10;1.80;;;9.90;99.90;;;;;;5047176;28;20037;-67
2023/04/26 11:48:14;;;;;;;5.28;1.95;;;9.70;99.90;;;;;;5045386;28;20048;-69
2023/04/26 11:50:40;;;;;;;5.90;2.67;;;9.70;99.90;;;;;;5043589;28;20368;-67
2023/04/26 11:53:07;;;;;;;6.38;2.15;;;9.60;99.90;;;;;;5046928;28;20041;-69
2023/04/26 11:55:34;;;;;;;5.10;2.47;;;9.50;99.90;;;;;;5045199;28;20040;-67
2023/04/26 11:58:00;;;;;;;7.68;2.33;;;9.40;99.90;;;;;;5047079;28;20085;-67
2023/04/26 12:00:26;;;;;;;5.60;2.28;;;9.30;99.90;;;;;;5046857;28;20048;-65
2023/04/26 12:02:53;;;;;;;5.13;2.40;;;9.30;99.90;;;;;;5046617;28;20037;-66
2023/04/26 12:05:31;;;;;;;2.70;1.67;;;9.40;99.90;;;;;;5046283;28;20025;-67
2023/04/26 12:07:59;;;;;;;5.15;2.03;;;9.40;99.90;;;;;;5045404;28;20025;-68
2023/04/26 12:10:31;;;;;;;4.45;2.03;;;9.40;99.90;;;;;;5044186;28;20065;-67
2023/04/26 12:12:58;;;;;;;5.18;2.63;;;9.40;99.90;;;;;;5044956;28;20080;-67
2023/04/26 12:15:29;;;;;;;5.53;2.17;;;9.50;99.90;;;;;;5047820;28;20060;-69
2023/04/26 12:18:05;;;;;;;4.60;2.20;;;9.70;99.90;;;;;;5044775;28;20029;-66
2023/04/26 12:20:36;;;;;;;7.97;2.30;;;9.70;99.90;;;;;;5045245;28;20041;-69
2023/04/26 12:23:35;;;;;;;6.07;2.22;;;9.60;99.90;;;;;;5027926;28;20257;-65
2023/04/26 12:26:02;;;;;;;7.47;2.45;;;9.60;99.90;;;;;;5046430;28;20086;-68
2023/04/26 12:28:28;;;;;;;5.70;2.47;;;9.50;99.90;;;;;;5047050;28;20492;-66
2023/04/26 12:30:53;;;;;;;6.85;3.05;;;9.40;99.90;;;;;;5041822;28;20134;-67
2023/04/26 12:33:21;;;;;;;5.18;2.20;;;9.40;99.90;;;;;;5045360;28;20442;-68
2023/04/26 12:35:47;;;;;;;9.43;2.60;;;9.30;99.90;;;;;;5048360;28;20435;-69
2023/04/26 12:38:14;;;;;;;5.22;2.42;;;9.20;99.90;;;;;;5044641;28;20032;-68
2023/04/26 12:40:41;;;;;;;6.57;2.30;;;9.20;99.90;;;;;;5045007;28;20087;-66
2023/04/26 12:43:07;;;;;;;4.97;2.15;;;9.20;99.90;;;;;;5045698;28;20064;-66
2023/04/26 12:45:33;;;;;;;10.32;2.60;;;9.30;99.90;;;;;;5047079;28;20076;-65
2023/04/26 12:47:58;;;;;;;7.93;3.03;;;9.30;99.90;;;;;;5045496;28;20055;-65
2023/04/26 12:50:24;;;;;;;8.32;3.38;;;9.30;99.90;;;;;;5045250;28;20179;-66
2023/04/26 12:52:50;;;;;;;5.15;2.47;;;9.30;99.90;;;;;;5046938;28;20040;-65
2023/04/26 12:55:16;;;;;;;5.35;2.42;;;9.30;99.90;;;;;;5049928;28;20503;-67